ROYN/OGN METAR and TAF weather

Enter ICAO airport designator
Station Type Date Time Source
ROYN METAR 2022/08/12 14:00 UTC NOAA

ROYN 121400Z AUTO 16003KT 9999 NCD 27/25 Q1009


Station Type Date Time Source
ROYN Decoded METAR 2022/08/12 14:00 UTC NOAA

Yonaguni Airport, Japan (ROYN) 24-28N 122-59E 19M
Aug 12, 2022 - 10:00 AM EDT / 2022.08.12 1400 UTC
Wind: from the SSE (160 degrees) at 3 MPH (3 KT):0
Visibility: greater than 7 mile(s):0
Temperature: 80 F (27 C)
Dew Point: 77 F (25 C)
Relative Humidity: 88%
Pressure (altimeter): 29.80 in. Hg (1009 hPa)
ob: ROYN 121400Z AUTO 16003KT 9999 NCD 27/25 Q1009
cycle: 14

Station Type Date Time Source
ROYN TAF UTC NOAA

Error!

Example: see airport list